OIFS  Shahrekord Airport

Add Bookmark

Shahrekord, Iran

Status IATA
Operational CQD
Latitude Longitude
32° 17' 49" N 50° 50' 31" E
32.297199 50.842201
Local (DST + 5) UTC (GMT + 4)
Jul 25, 2014 05:29 Jul 25, 2014 12:59
Sunrise-Sunset Local UTC
Begin Civil Twilight 05:48 01:18
Sunrise 06:15 01:45
Sunset 08:10 15:40
End Civil Twilight 08:37 16:07

Current Weather

METAR Observed VFR
OIFS 251200Z 08012KT 9999 SCT040 34/M02 Q1017 Fri, Jul 25, 2014 @ 12:00 UTC
(59 Minutes ago)
Visual Flight Rules

Decoded METAR

Wind Visibility Clouds Conditions
080° at 12 knots (22 kph) 10 km or more
  • Scattered at 4,000' AGL
  • No significant weather
Temperatures Readings Precipitation
Current Temp 34°C (93°F)
Dewpoint -2°C (28°F)
Humidity 10%
Altimeter 30.03"Hg
Sea Level Pressure 1017mb
Field Elevation 6817.59'
None Recorded

Additional weather within a 185.2km radius of OIFS

Map ICAO Location
OIFM 108km E (062°)
OIAI 151.5km W (258°)

24 Hour Weather History

Loading
-

24 Hour Weather Graphs

Loading
-

CheckWX.com is intended as a tool to help pilots better visualize weather data. It is not intended as a substitute for an official weather briefing obtained from a Flight Service Station. CheckWX.com does not meet the FAA requirements for an official pre-flight weather briefing. Therefore, it's important that pilots still call and obtain an official FSS pre-flight weather briefing.